Time;durP1;ratioP1;P1;durP2;ratioP2;P2;SDS_P1;SDS_P2;PMS_P1;PMS_P2;Temp;Humidity;BMP_temperature;BMP_pressure;BME280_temperature;BME280_humidity;BME280_pressure;Samples;Min_cycle;Max_cycle;Signal;HPM_P1;HPM_P2
2022/07/02 00:02:20;;;;;;;8.60;4.05;;;27.50;99.20;;;;;;1872876;75;21159;-81
2022/07/02 00:04:53;;;;;;;9.03;3.85;;;27.50;99.30;;;;;;1874658;75;21131;-82
2022/07/02 00:07:25;;;;;;;6.97;3.65;;;27.50;99.20;;;;;;1873828;76;21085;-81
2022/07/02 00:09:58;;;;;;;7.78;4.15;;;27.50;99.50;;;;;;1873450;75;21162;-82
2022/07/02 00:12:30;;;;;;;8.03;4.15;;;27.50;99.40;;;;;;1875213;75;21096;-81
2022/07/02 00:15:02;;;;;;;10.43;4.45;;;27.50;99.60;;;;;;1870269;75;21158;-82
2022/07/02 00:17:34;;;;;;;8.90;4.62;;;27.50;99.70;;;;;;1864414;76;21174;-82
2022/07/02 00:20:06;;;;;;;9.68;4.45;;;27.40;99.30;;;;;;1850591;77;21096;-83
2022/07/02 00:22:38;;;;;;;9.80;4.45;;;27.50;99.20;;;;;;1855288;77;21175;-84
2022/07/02 00:25:10;;;;;;;11.10;4.42;;;27.50;99.60;;;;;;1845754;76;21163;-75
2022/07/02 00:27:43;;;;;;;8.00;4.55;;;27.50;99.60;;;;;;1845570;76;21053;-74
2022/07/02 00:30:17;;;;;;;9.25;4.33;;;27.50;99.70;;;;;;1854075;75;21194;-75
2022/07/02 00:32:49;;;;;;;10.48;4.00;;;27.50;99.70;;;;;;1856395;76;21147;-74
2022/07/02 00:35:21;;;;;;;10.18;4.50;;;27.50;99.70;;;;;;1847098;77;21183;-75
2022/07/02 00:37:53;;;;;;;8.93;4.72;;;27.50;99.70;;;;;;1815962;78;21120;-74
2022/07/02 00:40:26;;;;;;;8.28;4.58;;;27.50;99.60;;;;;;1818628;78;21096;-75
2022/07/02 00:42:59;;;;;;;10.15;4.65;;;27.60;99.60;;;;;;1816246;77;21166;-75
2022/07/02 00:45:30;;;;;;;11.68;4.67;;;27.60;99.40;;;;;;1781944;78;21220;-74
2022/07/02 00:48:02;;;;;;;12.20;5.30;;;27.60;99.30;;;;;;1782077;79;21182;-75
2022/07/02 00:50:33;;;;;;;9.78;4.37;;;27.60;99.30;;;;;;1783501;80;21107;-75
2022/07/02 00:53:05;;;;;;;8.73;4.70;;;27.70;98.60;;;;;;1773808;80;21069;-74
2022/07/02 00:55:36;;;;;;;7.83;4.58;;;27.70;99.00;;;;;;1825474;78;21232;-75
2022/07/02 00:58:07;;;;;;;8.93;4.87;;;27.70;99.20;;;;;;1842624;77;21848;-75
2022/07/02 01:00:39;;;;;;;8.68;4.45;;;27.70;99.20;;;;;;1843106;76;21210;-75
2022/07/02 01:03:11;;;;;;;14.75;4.78;;;27.70;99.20;;;;;;1847259;76;21158;-75
2022/07/02 01:05:43;;;;;;;9.63;4.80;;;27.70;99.20;;;;;;1859890;75;21203;-74
2022/07/02 01:10:52;;;;;;;8.55;5.08;;;27.70;98.90;;;;;;1858394;76;21555;-74
2022/07/02 01:13:23;;;;;;;8.78;3.80;;;27.70;98.80;;;;;;1857326;77;21670;-74
2022/07/02 01:15:54;;;;;;;8.45;4.12;;;27.70;98.60;;;;;;1858394;76;21141;-75
2022/07/02 01:18:25;;;;;;;8.33;3.85;;;27.70;99.00;;;;;;1853635;76;21133;-74
2022/07/02 01:20:56;;;;;;;9.83;4.22;;;27.80;98.90;;;;;;1852338;76;21159;-73
2022/07/02 01:23:27;;;;;;;8.78;3.85;;;27.70;98.70;;;;;;1841696;77;21190;-75
2022/07/02 01:25:58;;;;;;;6.80;3.72;;;27.70;98.80;;;;;;1844568;75;21135;-74
2022/07/02 02:10:22;;;;;;;8.03;3.85;;;28.10;98.00;;;;;;1920270;72;21171;-76
2022/07/02 02:12:53;;;;;;;8.43;4.22;;;28.10;98.00;;;;;;1984717;72;21096;-76
2022/07/02 02:15:24;;;;;;;7.22;3.83;;;28.10;97.70;;;;;;1973348;72;21461;-76
2022/07/02 02:17:55;;;;;;;8.93;4.00;;;28.20;97.50;;;;;;1986912;72;21065;-77
2022/07/02 02:20:27;;;;;;;6.35;3.60;;;28.20;98.00;;;;;;1974839;72;21633;-75
2022/07/02 02:23:00;;;;;;;6.80;4.00;;;28.30;97.30;;;;;;1956623;72;21159;-77
2022/07/02 02:25:32;;;;;;;9.70;3.80;;;28.30;97.30;;;;;;1952616;73;22267;-76
2022/07/02 02:28:05;;;;;;;5.97;3.52;;;28.30;97.50;;;;;;1963006;72;21216;-77
2022/07/02 02:30:43;;;;;;;9.55;3.70;;;28.30;97.40;;;;;;1955884;72;21110;-77
2022/07/02 02:33:14;;;;;;;5.80;3.67;;;28.40;97.10;;;;;;1954817;72;21158;-77
2022/07/02 02:35:45;;;;;;;6.95;3.72;;;28.40;96.80;;;;;;1965367;72;21602;-76
2022/07/02 02:38:16;;;;;;;6.78;3.80;;;28.50;96.80;;;;;;1972303;73;21118;-78
2022/07/02 02:40:47;;;;;;;9.53;4.12;;;28.50;96.70;;;;;;1972188;73;21128;-76
2022/07/02 02:43:18;;;;;;;5.47;3.60;;;28.50;96.60;;;;;;1968440;72;21707;-77
2022/07/02 02:45:50;;;;;;;8.28;3.70;;;28.50;96.60;;;;;;1965597;72;21668;-77
2022/07/02 02:48:21;;;;;;;7.17;3.62;;;28.60;96.60;;;;;;1959791;72;22050;-76
2022/07/02 02:50:52;;;;;;;7.75;3.67;;;28.60;96.40;;;;;;1967804;72;21148;-78
2022/07/02 02:53:23;;;;;;;7.80;4.08;;;28.70;96.20;;;;;;1972501;73;21183;-77
2022/07/02 02:55:54;;;;;;;6.67;3.58;;;28.70;96.00;;;;;;1971933;72;21134;-77
2022/07/02 02:58:26;;;;;;;5.80;3.42;;;28.80;95.70;;;;;;1959093;72;21665;-76
2022/07/02 03:00:57;;;;;;;7.25;3.22;;;28.80;95.90;;;;;;1957757;72;21132;-76
2022/07/02 03:03:29;;;;;;;6.50;3.10;;;28.90;95.30;;;;;;1966397;72;21543;-75
2022/07/02 03:06:00;;;;;;;6.05;3.02;;;29.00;94.80;;;;;;1960846;72;21680;-75
2022/07/02 03:08:32;;;;;;;5.62;3.37;;;29.10;94.70;;;;;;1962087;73;21053;-77
2022/07/02 03:11:03;;;;;;;6.90;3.27;;;29.20;94.80;;;;;;1961220;72;21409;-75
2022/07/02 03:13:34;;;;;;;6.17;3.70;;;29.20;94.50;;;;;;1976955;72;21189;-76
2022/07/02 03:16:07;;;;;;;6.87;3.70;;;29.30;94.20;;;;;;1977709;72;21595;-77
2022/07/02 03:18:38;;;;;;;5.80;2.83;;;29.30;94.50;;;;;;1989871;72;21569;-76
2022/07/02 03:21:09;;;;;;;5.75;2.90;;;29.50;94.50;;;;;;1990009;72;21127;-74
2022/07/02 03:23:41;;;;;;;7.47;3.00;;;29.60;94.10;;;;;;1945686;74;22130;-75
2022/07/02 03:26:12;;;;;;;9.20;3.30;;;29.60;93.60;;;;;;1987999;72;21129;-75
2022/07/02 03:28:43;;;;;;;5.45;2.70;;;29.70;93.60;;;;;;1950140;74;21182;-77
2022/07/02 03:31:14;;;;;;;7.33;3.40;;;29.70;93.30;;;;;;1982187;72;21095;-76
2022/07/02 03:33:45;;;;;;;5.72;2.75;;;29.80;92.90;;;;;;1968677;73;21193;-75
2022/07/02 03:36:17;;;;;;;6.55;2.37;;;29.80;92.70;;;;;;1982623;70;21452;-75
2022/07/02 03:38:48;;;;;;;4.83;2.77;;;29.90;92.90;;;;;;1988252;72;21624;-76
2022/07/02 03:41:19;;;;;;;5.55;2.62;;;29.90;92.60;;;;;;1974634;72;21120;-76
2022/07/02 03:43:51;;;;;;;6.80;2.95;;;29.90;92.60;;;;;;1945793;72;21807;-77
2022/07/02 03:46:22;;;;;;;8.20;2.90;;;29.80;92.60;;;;;;1986053;72;21924;-76
2022/07/02 03:48:53;;;;;;;4.42;2.47;;;29.80;92.70;;;;;;1945561;74;21572;-76
2022/07/02 03:51:24;;;;;;;6.45;2.55;;;29.90;92.80;;;;;;1977861;72;21131;-75
2022/07/02 03:53:56;;;;;;;5.83;2.52;;;29.90;92.50;;;;;;1945742;73;21077;-75
2022/07/02 03:56:28;;;;;;;5.03;2.27;;;30.00;92.20;;;;;;1976707;72;21079;-77
2022/07/02 03:58:59;;;;;;;4.35;2.20;;;30.00;91.80;;;;;;1944929;74;21089;-74
2022/07/02 04:01:29;;;;;;;7.70;3.10;;;30.00;91.80;;;;;;1981484;72;21605;-76
2022/07/02 04:04:00;;;;;;;7.10;2.70;;;30.00;92.00;;;;;;2000702;72;21119;-76
2022/07/02 04:06:31;;;;;;;7.55;3.00;;;30.00;92.00;;;;;;1982996;72;21157;-75
2022/07/02 04:09:02;;;;;;;8.45;3.02;;;30.00;91.80;;;;;;1979833;72;21164;-75
2022/07/02 04:11:34;;;;;;;6.47;2.98;;;30.10;92.00;;;;;;1991418;71;21075;-74
2022/07/02 04:14:05;;;;;;;5.60;2.80;;;30.10;92.00;;;;;;1989102;71;21143;-74
2022/07/02 04:16:36;;;;;;;6.10;2.98;;;30.20;92.00;;;;;;2004960;71;21170;-74
2022/07/02 04:19:09;;;;;;;5.75;2.77;;;30.30;92.20;;;;;;1996310;72;22338;-74
2022/07/02 04:21:42;;;;;;;6.05;3.12;;;30.40;92.10;;;;;;1984950;72;21067;-74
2022/07/02 04:24:13;;;;;;;7.53;3.15;;;30.50;92.10;;;;;;1990575;71;21060;-75
2022/07/02 04:26:44;;;;;;;7.22;3.33;;;30.60;91.40;;;;;;2008930;71;21064;-75
2022/07/02 04:29:15;;;;;;;5.37;2.35;;;30.60;91.20;;;;;;2008994;71;21590;-75
2022/07/02 04:31:47;;;;;;;6.10;2.95;;;30.70;90.90;;;;;;1997642;71;21158;-75
2022/07/02 04:34:30;;;;;;;5.37;2.55;;;30.70;90.50;;;;;;1994290;72;21150;-76
2022/07/02 04:37:01;;;;;;;5.17;2.95;;;30.70;90.60;;;;;;1995933;72;21225;-77
2022/07/02 04:39:34;;;;;;;5.35;2.90;;;30.80;90.50;;;;;;1940716;73;21192;-75
2022/07/02 04:42:06;;;;;;;6.80;2.72;;;30.90;90.90;;;;;;1974652;71;21166;-75
2022/07/02 04:44:37;;;;;;;5.90;2.35;;;31.00;90.30;;;;;;1995286;72;21171;-76
2022/07/02 04:47:09;;;;;;;4.08;2.67;;;31.10;89.70;;;;;;1992307;71;21272;-77
2022/07/02 04:49:41;;;;;;;6.22;2.70;;;31.20;88.80;;;;;;1978580;71;21146;-75
2022/07/02 04:52:11;;;;;;;6.65;2.55;;;31.20;89.60;;;;;;1988188;71;21115;-75
2022/07/02 04:54:43;;;;;;;5.17;2.50;;;31.30;88.70;;;;;;1996662;71;21637;-77
2022/07/02 04:57:14;;;;;;;4.28;2.37;;;31.40;87.40;;;;;;1991881;71;21083;-76
2022/07/02 04:59:45;;;;;;;4.22;2.20;;;31.50;87.60;;;;;;1979443;71;21071;-76
2022/07/02 05:02:16;;;;;;;5.28;2.62;;;31.60;88.00;;;;;;1978138;71;21199;-76
2022/07/02 05:04:47;;;;;;;4.90;2.00;;;31.60;88.00;;;;;;1971822;71;21204;-76
2022/07/02 05:07:18;;;;;;;9.80;2.60;;;31.80;85.50;;;;;;1972660;72;21099;-76
2022/07/02 05:09:51;;;;;;;3.45;2.25;;;31.80;85.30;;;;;;1976076;71;21201;-76
2022/07/02 05:12:23;;;;;;;5.20;2.47;;;31.80;86.50;;;;;;1980138;72;21149;-76
2022/07/02 05:14:57;;;;;;;5.28;2.70;;;31.80;86.60;;;;;;1965940;72;21578;-76
2022/07/02 05:17:28;;;;;;;5.17;2.90;;;31.80;86.50;;;;;;1985517;72;21150;-74
2022/07/02 05:19:59;;;;;;;5.28;3.02;;;31.80;86.80;;;;;;1962138;73;21119;-74
2022/07/02 05:22:29;;;;;;;5.00;2.37;;;31.80;85.70;;;;;;1976646;72;21119;-77
2022/07/02 05:25:00;;;;;;;4.33;2.67;;;31.80;85.50;;;;;;1980528;71;21135;-76
2022/07/02 05:27:34;;;;;;;3.70;2.52;;;31.80;85.50;;;;;;1962359;72;21571;-74
2022/07/02 05:30:08;;;;;;;5.50;2.52;;;31.80;85.50;;;;;;1962408;71;21540;-76
2022/07/02 05:32:38;;;;;;;5.97;2.58;;;31.80;85.20;;;;;;1962776;72;21161;-75
2022/07/02 05:35:12;;;;;;;4.25;2.27;;;31.70;85.20;;;;;;1961858;71;21117;-74
2022/07/02 05:37:43;;;;;;;5.25;2.95;;;31.60;86.00;;;;;;1962617;72;21699;-76
2022/07/02 05:40:14;;;;;;;4.17;2.52;;;31.50;86.20;;;;;;1982866;71;21629;-77
2022/07/02 05:42:45;;;;;;;5.22;2.17;;;31.50;86.60;;;;;;1982701;71;21115;-73
2022/07/02 05:45:16;;;;;;;7.95;3.25;;;31.50;86.80;;;;;;1973882;72;21118;-75
2022/07/02 05:47:47;;;;;;;5.30;2.83;;;31.50;86.80;;;;;;1976725;72;21675;-74
2022/07/02 05:52:40;;;;;;;4.10;2.42;;;31.60;86.30;;;;;;1911391;72;20210;-75
2022/07/02 05:55:11;;;;;;;5.35;2.37;;;31.70;85.30;;;;;;1900250;74;21149;-76
2022/07/02 05:57:42;;;;;;;4.60;2.40;;;31.70;85.70;;;;;;1920880;74;21099;-77
2022/07/02 06:00:14;;;;;;;3.00;1.90;;;31.80;85.50;;;;;;1914972;74;21681;-76
2022/07/02 06:02:46;;;;;;;7.87;2.40;;;31.80;85.30;;;;;;1878861;75;21579;-77
2022/07/02 06:07:49;;;;;;;5.17;2.35;;;32.00;85.20;;;;;;1885057;76;21229;-76
2022/07/02 06:10:21;;;;;;;3.80;2.45;;;32.10;84.20;;;;;;1887671;76;21081;-76
2022/07/02 06:12:53;;;;;;;5.17;2.40;;;32.10;83.10;;;;;;1902264;74;21113;-75
2022/07/02 06:15:24;;;;;;;4.05;2.35;;;32.10;83.80;;;;;;1894897;74;21149;-77
2022/07/02 06:17:54;;;;;;;4.22;2.50;;;32.20;82.50;;;;;;1895107;73;21579;-76
2022/07/02 06:20:26;;;;;;;3.77;2.37;;;32.20;83.30;;;;;;1895004;73;21572;-76
2022/07/02 06:22:57;;;;;;;4.53;1.90;;;32.20;84.30;;;;;;1901451;74;21182;-77
2022/07/02 06:25:28;;;;;;;4.17;2.22;;;32.10;82.40;;;;;;1899138;75;21129;-75
2022/07/02 06:27:59;;;;;;;4.78;1.92;;;32.10;82.50;;;;;;1896989;75;21679;-75
2022/07/02 06:30:30;;;;;;;4.95;3.10;;;32.20;83.30;;;;;;1897741;73;21167;-76
2022/07/02 06:33:01;;;;;;;6.92;2.27;;;32.20;82.00;;;;;;1896617;75;21144;-77
2022/07/02 06:35:32;;;;;;;3.70;2.33;;;32.20;81.90;;;;;;1887091;76;21170;-78
2022/07/02 06:38:04;;;;;;;5.87;2.87;;;32.20;81.90;;;;;;1894089;75;21200;-77
2022/07/02 06:40:35;;;;;;;3.22;2.45;;;32.20;82.50;;;;;;1899743;75;21193;-78
2022/07/02 06:43:06;;;;;;;4.60;2.20;;;32.20;82.60;;;;;;1897637;75;21143;-77
2022/07/02 06:45:37;;;;;;;2.80;1.77;;;32.10;82.30;;;;;;1909394;75;21624;-76
2022/07/02 06:48:08;;;;;;;4.72;2.62;;;32.10;82.40;;;;;;1897928;75;21156;-77
2022/07/02 06:50:39;;;;;;;6.05;2.60;;;32.10;82.30;;;;;;1903009;75;21202;-77
2022/07/02 06:53:10;;;;;;;5.10;1.95;;;32.20;83.00;;;;;;1900262;75;21200;-77
2022/07/02 06:55:41;;;;;;;5.33;2.50;;;32.20;82.60;;;;;;1880296;75;21531;-76
2022/07/02 06:58:12;;;;;;;4.08;2.30;;;32.30;82.20;;;;;;1901737;75;21588;-77
2022/07/02 07:00:43;;;;;;;4.00;2.47;;;32.30;81.50;;;;;;1895814;75;21230;-76
2022/07/02 07:03:14;;;;;;;5.08;2.52;;;32.30;81.10;;;;;;1877990;75;21117;-76
2022/07/02 07:05:46;;;;;;;5.92;2.90;;;32.30;81.00;;;;;;1898924;75;21194;-75
2022/07/02 07:08:17;;;;;;;3.58;2.27;;;32.20;81.50;;;;;;1879142;75;21117;-77
2022/07/02 07:10:48;;;;;;;3.92;1.80;;;32.10;81.50;;;;;;1870064;75;21152;-77
2022/07/02 07:13:19;;;;;;;10.48;4.95;;;32.00;81.50;;;;;;1868581;77;21165;-75
2022/07/02 07:15:50;;;;;;;4.37;1.60;;;31.90;82.20;;;;;;1873861;76;21183;-75
2022/07/02 07:18:22;;;;;;;3.90;1.72;;;31.90;81.60;;;;;;1875830;76;21718;-75
2022/07/02 07:20:53;;;;;;;4.08;1.98;;;31.90;81.80;;;;;;1882777;75;21083;-75
2022/07/02 07:23:24;;;;;;;4.15;1.67;;;31.90;81.80;;;;;;1900613;75;21091;-75
2022/07/02 07:25:58;;;;;;;4.00;2.02;;;31.80;81.90;;;;;;1912715;74;21159;-75
2022/07/02 07:28:30;;;;;;;6.53;1.85;;;31.70;82.50;;;;;;1902542;74;21080;-76
2022/07/02 07:31:01;;;;;;;3.37;1.90;;;31.70;82.00;;;;;;1876156;75;21187;-75
2022/07/02 07:33:33;;;;;;;4.70;1.75;;;31.70;83.20;;;;;;1902763;74;21097;-74
2022/07/02 07:36:07;;;;;;;5.60;1.82;;;31.70;82.70;;;;;;1902409;74;21175;-75
2022/07/02 07:38:38;;;;;;;3.80;1.90;;;31.70;83.70;;;;;;1899992;74;21078;-76
2022/07/02 07:41:10;;;;;;;5.37;2.33;;;31.70;82.50;;;;;;1864619;76;21639;-76
2022/07/02 07:43:45;;;;;;;5.90;2.50;;;31.70;82.70;;;;;;1904204;74;21532;-75
2022/07/02 07:46:17;;;;;;;4.45;3.37;;;31.70;83.30;;;;;;1897759;75;21128;-75
2022/07/02 07:48:49;;;;;;;7.47;2.70;;;31.70;83.40;;;;;;1892848;74;21678;-78
2022/07/02 07:51:20;;;;;;;4.50;2.10;;;31.70;83.10;;;;;;1905654;73;21045;-73
2022/07/02 07:53:51;;;;;;;5.35;2.40;;;31.80;82.60;;;;;;1920164;74;21654;-73
2022/07/02 07:56:22;;;;;;;4.55;2.02;;;31.90;83.10;;;;;;1921974;74;21100;-74
2022/07/02 07:58:53;;;;;;;5.20;2.77;;;32.00;82.60;;;;;;1922538;74;21143;-74
2022/07/02 08:01:26;;;;;;;6.95;2.65;;;32.10;83.20;;;;;;1925456;74;21160;-74
2022/07/02 08:03:57;;;;;;;7.55;3.17;;;32.10;82.00;;;;;;1928533;74;21702;-74
2022/07/02 08:06:28;;;;;;;5.78;2.60;;;32.20;81.80;;;;;;1919231;74;21097;-74
2022/07/02 08:08:59;;;;;;;6.00;2.92;;;32.20;81.50;;;;;;1923798;74;22133;-75
2022/07/02 08:11:31;;;;;;;5.42;2.90;;;32.20;80.60;;;;;;1922657;74;21241;-73
2022/07/02 08:14:04;;;;;;;4.10;1.40;;;32.30;80.20;;;;;;1928997;74;21405;-73
2022/07/02 08:16:36;;;;;;;4.00;1.72;;;32.30;80.00;;;;;;1919347;74;21680;-73
2022/07/02 08:19:10;;;;;;;6.40;1.80;;;32.20;80.50;;;;;;1929115;73;21659;-73
2022/07/02 08:21:41;;;;;;;4.20;2.00;;;32.20;80.20;;;;;;1922858;74;21553;-73
2022/07/02 08:24:12;;;;;;;3.25;1.90;;;32.20;80.70;;;;;;1929113;74;21041;-74
2022/07/02 08:26:43;;;;;;;4.17;2.00;;;32.20;80.80;;;;;;1922440;74;21133;-74
2022/07/02 08:29:14;;;;;;;5.10;2.08;;;32.20;81.10;;;;;;1929392;74;21164;-75
2022/07/02 08:31:45;;;;;;;4.80;1.90;;;32.20;81.70;;;;;;1920883;74;21201;-74
2022/07/02 08:34:16;;;;;;;2.52;1.87;;;32.20;81.20;;;;;;1901534;74;22118;-74
2022/07/02 08:36:47;;;;;;;3.67;2.00;;;32.20;82.00;;;;;;1889722;76;21182;-75
2022/07/02 08:39:19;;;;;;;4.08;2.10;;;32.20;81.40;;;;;;1895934;75;21591;-74
2022/07/02 08:41:51;;;;;;;5.45;2.52;;;32.30;81.10;;;;;;1889634;76;21155;-74
2022/07/02 08:44:23;;;;;;;5.20;1.82;;;32.20;81.40;;;;;;1896395;75;21631;-75
2022/07/02 08:46:54;;;;;;;2.92;1.75;;;32.20;80.60;;;;;;1896261;75;21148;-74
2022/07/02 08:49:27;;;;;;;4.78;1.70;;;32.20;80.60;;;;;;1889766;75;21583;-74
2022/07/02 08:54:33;;;;;;;4.58;2.15;;;32.20;80.40;;;;;;1890428;75;21619;-73
2022/07/02 08:57:06;;;;;;;4.12;1.87;;;32.20;80.70;;;;;;1906170;74;21139;-73
2022/07/02 08:59:55;;;;;;;3.95;2.10;;;32.10;80.60;;;;;;1921070;75;21217;-74
2022/07/02 09:02:28;;;;;;;3.83;1.90;;;32.10;80.60;;;;;;1855766;76;21571;-74
2022/07/02 09:05:01;;;;;;;5.00;1.80;;;32.10;79.60;;;;;;1895211;74;21183;-75
2022/07/02 09:07:33;;;;;;;3.45;1.77;;;32.10;80.10;;;;;;1859984;76;21609;-77
2022/07/02 09:10:05;;;;;;;3.02;1.90;;;32.10;80.00;;;;;;1872449;75;21614;-75
2022/07/02 09:12:37;;;;;;;4.15;1.87;;;32.10;80.50;;;;;;1872409;76;21118;-75
2022/07/02 09:15:10;;;;;;;4.67;2.05;;;32.00;80.10;;;;;;1868537;76;21151;-76
2022/07/02 09:17:43;;;;;;;5.05;1.65;;;32.00;80.00;;;;;;1846286;76;21055;-76
2022/07/02 09:20:14;;;;;;;9.55;2.08;;;32.00;79.60;;;;;;1875765;76;21159;-77
2022/07/02 09:22:51;;;;;;;2.92;1.80;;;31.90;79.70;;;;;;1868223;75;21127;-76
2022/07/02 09:25:27;;;;;;;5.12;2.47;;;31.90;80.20;;;;;;1865305;76;21166;-76
2022/07/02 09:28:01;;;;;;;5.05;2.08;;;31.90;80.50;;;;;;1868847;76;21181;-75
2022/07/02 09:30:36;;;;;;;3.47;2.00;;;31.80;80.10;;;;;;1878430;74;21162;-75
2022/07/02 09:35:42;;;;;;;4.92;2.10;;;31.80;80.00;;;;;;1866069;76;21612;-75
2022/07/02 09:38:13;;;;;;;3.58;2.20;;;31.80;80.20;;;;;;1875076;74;21590;-76
2022/07/02 09:40:46;;;;;;;5.17;2.00;;;31.80;80.40;;;;;;1842998;77;21256;-74
2022/07/02 09:43:19;;;;;;;3.98;2.00;;;31.80;80.60;;;;;;1880272;76;21805;-75
2022/07/02 09:45:50;;;;;;;7.67;2.50;;;31.90;80.70;;;;;;1881581;75;21224;-76
2022/07/02 09:48:21;;;;;;;6.30;2.05;;;31.90;80.80;;;;;;1871989;76;21146;-76
2022/07/02 09:50:54;;;;;;;8.83;2.42;;;31.90;80.10;;;;;;1874051;75;21150;-73
2022/07/02 09:53:25;;;;;;;5.28;1.70;;;31.90;80.10;;;;;;1880926;75;21107;-73
2022/07/02 09:55:57;;;;;;;8.13;1.98;;;31.90;80.40;;;;;;1843666;78;21115;-74
2022/07/02 09:58:28;;;;;;;4.62;2.10;;;31.80;80.20;;;;;;1881925;75;21115;-75
2022/07/02 10:01:02;;;;;;;5.75;2.33;;;31.80;80.80;;;;;;1828614;77;21194;-76
2022/07/02 10:03:33;;;;;;;6.72;2.33;;;31.80;79.90;;;;;;1842640;76;21087;-75
2022/07/02 10:06:06;;;;;;;5.37;2.15;;;31.80;80.40;;;;;;1865708;76;21139;-76
2022/07/02 10:08:38;;;;;;;8.28;2.37;;;31.80;79.80;;;;;;1878303;76;21123;-76
2022/07/02 10:11:12;;;;;;;3.62;2.20;;;31.80;79.70;;;;;;1877785;76;21689;-75
2022/07/02 10:13:43;;;;;;;6.78;2.62;;;31.80;80.10;;;;;;1871981;76;21151;-76
2022/07/02 10:16:17;;;;;;;7.45;2.40;;;31.80;79.90;;;;;;1870018;75;21249;-75
2022/07/02 10:18:49;;;;;;;6.90;2.87;;;31.70;80.40;;;;;;1883174;75;21852;-75
2022/07/02 10:21:22;;;;;;;4.37;2.50;;;31.70;80.50;;;;;;1815575;78;21552;-80
2022/07/02 10:23:54;;;;;;;6.05;2.60;;;31.70;81.00;;;;;;1869524;75;21136;-80
2022/07/02 10:26:26;;;;;;;7.03;2.83;;;31.70;81.20;;;;;;1869072;75;21159;-79
2022/07/02 10:28:57;;;;;;;8.88;2.45;;;31.70;81.30;;;;;;1830836;78;21197;-81
2022/07/02 10:31:30;;;;;;;7.00;2.47;;;31.70;81.70;;;;;;1876599;74;21167;-81
2022/07/02 10:34:04;;;;;;;5.55;2.10;;;31.70;82.00;;;;;;1899898;75;21276;-82
2022/07/02 10:36:35;;;;;;;4.10;1.82;;;31.70;83.20;;;;;;1890037;75;21154;-82
2022/07/02 10:39:19;;;;;;;7.47;2.37;;;31.70;82.30;;;;;;1907977;75;21773;-82
2022/07/02 10:41:50;;;;;;;5.35;2.67;;;31.70;82.50;;;;;;1901677;75;21119;-81
2022/07/02 10:44:22;;;;;;;6.87;2.52;;;31.70;82.20;;;;;;1874118;75;21561;-81
2022/07/02 10:46:56;;;;;;;5.05;2.47;;;31.70;82.10;;;;;;1846698;74;21188;-81
2022/07/02 10:49:28;;;;;;;8.70;3.00;;;31.60;81.60;;;;;;1867183;74;21172;-81
2022/07/02 10:52:01;;;;;;;6.42;3.52;;;31.70;81.60;;;;;;1804321;78;21295;-81
2022/07/02 10:54:40;;;;;;;6.42;3.25;;;31.70;81.60;;;;;;1886103;76;21096;-81
2022/07/02 10:57:17;;;;;;;6.15;3.10;;;31.60;81.90;;;;;;1855212;75;21618;-80
2022/07/02 10:59:48;;;;;;;7.00;3.50;;;31.60;82.00;;;;;;1886640;76;21491;-81
2022/07/02 11:02:18;;;;;;;7.62;3.35;;;31.60;81.70;;;;;;1879898;76;21123;-81
2022/07/02 11:04:51;;;;;;;16.50;3.58;;;31.50;82.50;;;;;;1886193;76;21648;-82
2022/07/02 11:07:23;;;;;;;9.05;3.77;;;31.50;82.80;;;;;;1876377;76;21232;-81
2022/07/02 11:09:57;;;;;;;7.90;3.75;;;31.50;83.10;;;;;;1874241;76;21087;-81
2022/07/02 11:12:29;;;;;;;7.45;3.52;;;31.50;83.30;;;;;;1886196;76;21071;-82
2022/07/02 11:15:01;;;;;;;5.62;3.20;;;31.50;83.60;;;;;;1872263;76;21135;-81
2022/07/02 11:17:36;;;;;;;7.90;3.40;;;31.40;83.30;;;;;;1876789;76;21087;-81
2022/07/02 11:20:08;;;;;;;6.75;2.85;;;31.40;83.70;;;;;;1860805;76;21721;-81
2022/07/02 11:22:39;;;;;;;6.22;2.83;;;31.40;83.70;;;;;;1892432;74;21188;-81
2022/07/02 11:25:11;;;;;;;5.80;3.00;;;31.40;83.90;;;;;;1853341;76;21213;-81
2022/07/02 11:27:42;;;;;;;8.85;3.20;;;31.30;83.80;;;;;;1865113;76;21095;-81
2022/07/02 11:30:13;;;;;;;6.92;3.10;;;31.30;83.90;;;;;;1874049;76;21416;-80
2022/07/02 11:32:44;;;;;;;6.05;3.00;;;31.30;84.00;;;;;;1883873;76;21118;-80
2022/07/02 11:35:17;;;;;;;6.20;2.92;;;31.30;83.90;;;;;;1873353;75;21174;-81
2022/07/02 11:37:48;;;;;;;8.78;2.75;;;31.20;84.00;;;;;;1866086;76;21217;-80
2022/07/02 11:40:22;;;;;;;8.00;2.90;;;31.20;84.00;;;;;;1833681;78;21159;-80
2022/07/02 11:42:52;;;;;;;6.20;3.00;;;31.20;83.90;;;;;;1845171;78;21143;-81
2022/07/02 11:45:24;;;;;;;7.35;3.00;;;31.20;84.20;;;;;;1871914;75;21588;-80
2022/07/02 11:47:56;;;;;;;4.42;2.98;;;31.20;84.20;;;;;;1851784;76;21131;-80
2022/07/02 11:50:31;;;;;;;7.28;2.80;;;31.20;84.30;;;;;;1845078;76;21127;-80
2022/07/02 11:53:02;;;;;;;7.90;3.40;;;31.10;84.50;;;;;;1845182;78;21154;-80
2022/07/02 11:55:33;;;;;;;7.08;3.20;;;31.10;84.50;;;;;;1858562;76;21132;-81
2022/07/02 11:58:04;;;;;;;7.40;3.27;;;31.10;84.50;;;;;;1852657;76;21620;-80
2022/07/02 12:00:35;;;;;;;6.87;3.22;;;31.10;84.50;;;;;;1842635;78;21093;-81
2022/07/02 12:03:08;;;;;;;6.80;3.30;;;31.10;84.60;;;;;;1853054;76;21093;-81
2022/07/02 12:05:41;;;;;;;9.23;3.40;;;31.10;84.80;;;;;;1854686;76;21139;-82
2022/07/02 12:08:19;;;;;;;10.63;3.45;;;31.00;84.70;;;;;;1858289;76;21256;-81
2022/07/02 12:10:46;;;;;;;10.58;3.75;;;31.00;85.00;;;;;;1842797;76;21213;-82
2022/07/02 12:13:17;;;;;;;6.87;3.17;;;31.00;84.80;;;;;;1844579;78;21527;-80
2022/07/02 12:15:48;;;;;;;6.78;3.10;;;31.00;84.90;;;;;;1843196;78;21169;-80
2022/07/02 12:18:21;;;;;;;10.50;3.80;;;31.00;85.10;;;;;;1885948;76;21134;-81
2022/07/02 12:20:54;;;;;;;7.12;3.60;;;31.00;85.30;;;;;;1874178;76;21064;-81
2022/07/02 12:23:26;;;;;;;10.80;3.20;;;31.00;85.60;;;;;;1885873;76;21158;-80
2022/07/02 12:25:57;;;;;;;8.68;4.00;;;30.90;85.70;;;;;;1874227;76;21143;-79
2022/07/02 12:31:01;;;;;;;7.00;3.65;;;30.90;85.90;;;;;;1843868;76;21186;-81
2022/07/02 12:33:41;;;;;;;9.90;4.07;;;30.90;85.80;;;;;;1833592;78;21119;-80
2022/07/02 12:36:15;;;;;;;9.65;3.50;;;30.90;85.90;;;;;;1844166;76;21141;-81
2022/07/02 12:38:50;;;;;;;6.33;3.77;;;30.90;85.80;;;;;;1800233;78;21633;-80
2022/07/02 12:41:21;;;;;;;5.72;3.60;;;30.90;85.70;;;;;;1821363;78;21579;-80
2022/07/02 12:43:55;;;;;;;8.40;3.80;;;30.90;85.40;;;;;;1873002;76;21171;-81
2022/07/02 12:46:33;;;;;;;7.70;3.87;;;30.90;85.80;;;;;;1878040;75;21103;-81
2022/07/02 12:49:09;;;;;;;8.55;4.00;;;30.90;85.70;;;;;;1852054;75;21153;-80
2022/07/02 12:51:43;;;;;;;8.20;3.70;;;30.90;85.70;;;;;;1867665;75;21143;-80
2022/07/02 12:54:15;;;;;;;7.70;4.12;;;30.90;85.80;;;;;;1869922;75;21166;-81
2022/07/02 12:56:47;;;;;;;10.88;5.25;;;30.90;86.00;;;;;;1851391;76;21659;-81
2022/07/02 12:59:21;;;;;;;8.50;4.30;;;30.90;86.00;;;;;;1885547;76;21728;-80
2022/07/02 13:01:56;;;;;;;13.32;4.75;;;30.90;86.10;;;;;;1880601;76;21186;-81
2022/07/02 13:04:27;;;;;;;9.03;4.30;;;30.80;86.00;;;;;;1860182;76;21186;-81
2022/07/02 13:07:03;;;;;;;8.13;4.40;;;30.80;86.00;;;;;;1837200;77;21163;-80
2022/07/02 13:09:33;;;;;;;;;;;30.80;85.90;;;;;;1848587;77;21290;-79
2022/07/02 13:12:06;;;;;;;9.75;4.03;;;30.80;86.00;;;;;;1834991;77;20136;-80
2022/07/02 13:14:37;;;;;;;9.28;3.67;;;30.80;86.10;;;;;;1853113;77;21127;-79
2022/07/02 13:17:09;;;;;;;8.40;3.98;;;30.80;86.20;;;;;;1834942;77;21159;-81
2022/07/02 13:19:44;;;;;;;8.73;4.03;;;30.80;86.20;;;;;;1846058;77;21232;-80
2022/07/02 13:22:16;;;;;;;8.15;4.08;;;30.80;86.20;;;;;;1841608;77;21147;-79
2022/07/02 13:24:50;;;;;;;8.18;4.45;;;30.80;86.40;;;;;;1818542;79;21715;-79
2022/07/02 13:27:24;;;;;;;9.60;5.28;;;30.80;86.50;;;;;;1836628;77;21205;-80
2022/07/02 13:29:55;;;;;;;13.95;4.90;;;30.80;86.70;;;;;;1850808;77;21579;-80
2022/07/02 13:32:28;;;;;;;8.33;5.05;;;30.80;87.60;;;;;;1852966;77;21099;-80
2022/07/02 13:34:59;;;;;;;10.48;4.47;;;30.70;86.70;;;;;;1844599;76;21612;-81
2022/07/02 13:37:30;;;;;;;8.55;4.58;;;30.80;86.70;;;;;;1857373;76;22227;-81
2022/07/02 13:40:03;;;;;;;11.45;5.00;;;30.70;86.70;;;;;;1844352;76;21621;-81
2022/07/02 13:42:35;;;;;;;10.28;5.00;;;30.70;86.70;;;;;;1850483;76;21646;-81
2022/07/02 13:45:08;;;;;;;9.85;4.75;;;30.70;87.00;;;;;;1853103;77;21201;-79
2022/07/02 13:47:39;;;;;;;10.10;5.40;;;30.70;87.10;;;;;;1847984;76;21268;-80
2022/07/02 13:50:12;;;;;;;10.18;5.80;;;30.70;87.40;;;;;;1838538;77;21158;-80
2022/07/02 13:52:44;;;;;;;14.35;6.12;;;30.70;87.60;;;;;;1811957;79;21093;-81
2022/07/02 13:55:19;;;;;;;10.28;6.22;;;30.60;87.70;;;;;;1836956;77;21102;-80
2022/07/02 13:57:50;;;;;;;12.15;6.25;;;30.60;88.10;;;;;;1851063;76;21170;-79
2022/07/02 14:00:21;;;;;;;9.68;5.47;;;30.60;88.30;;;;;;1852912;76;21060;-80
2022/07/02 14:02:55;;;;;;;10.75;5.58;;;30.60;88.40;;;;;;1804356;79;21267;-80
2022/07/02 14:05:26;;;;;;;12.63;5.33;;;30.50;88.30;;;;;;1850461;76;21096;-81
2022/07/02 14:07:57;;;;;;;11.83;5.17;;;30.50;88.40;;;;;;1848773;77;21956;-80